Stanleytown, VA (24168)

5:57 AM EST on February 09, 2016 (GMT -0500)
Figsboro | | Change Station
CLOSE
Current Station
Personal Weather Station
Location: Martinsville, VA
Elevation: 1106 ft
Nearby Weather Stations

Elev 1106 ft 36.78 °N, 79.86 °W | Updated 6 seconds ago

Overcast
Overcast
27.0 °F
Feels Like 27 °F
N
1.1
Wind Variable Wind from SSW

Today
High -- | Low -- °F
--% Chance of Precip.
Yesterday
High -- | Low -- °F
Precip. -- in
Pressure 29.63 in
Visibility 10.0 miles
Clouds Overcast 9000 ft
Windchill 27 °F
Dew Point 27 °F
Humidity 99%
Rainfall 0.00 in
Snow Depth Not available.
7:14 AM 5:53 PM
New Moon, 1% visible
METAR KMTV 091035Z AUTO 00000KT 10SM OVC090 M04/M05 A2963 RMK AO2 T10411046
Pressure 29.63 in
Visibility 10.0 miles
Clouds Overcast 9000 ft
Windchill 27 °F
Dew Point 27 °F
Humidity 99%
Rainfall 0.00 in
Snow Depth Not available.
7:14 AM 5:53 PM
New Moon, 1% visible
METAR KMTV 091035Z AUTO 00000KT 10SM OVC090 M04/M05 A2963 RMK AO2 T10411046

10-Day Weather Forecast

Almanac

Astronomy

Feb. 09, 2016 Rise Set
Actual Time
Civil Twilight
Nautical Twilight
Astronomical Twilight
Moon
Length of Visible Light
Length of Day
Tomorrow will be .
, % of the Moon is Illuminated

Today's Extremes

State Highs State Lows

Community

WunderPhotos

Upload Photos

1,891,565 photos uploaded!

WunderBlog® & News

Nearby

Air Quality

  Air Quality AQ Index Pollutant
Not available.

Snow Depth

Station Depth Elevation

Earthquake Activity

City Distance Mag. Time & Date
Minimum magnitude displayed is 2.5.

Coastal Water Temperatures

Place Temperature

Stations

Nearby Weather Stations

Station Location Temp. Windchill Dew Point Humidity Wind Precip. Elev Updated Type
                   

Watches & Warnings

There are currently no watches in effect.